Time;durP1;ratioP1;P1;durP2;ratioP2;P2;SDS_P1;SDS_P2;PMS_P1;PMS_P2;Temp;Humidity;BMP_temperature;BMP_pressure;BME280_temperature;BME280_humidity;BME280_pressure;Samples;Min_cycle;Max_cycle;Signal;HPM_P1;HPM_P2
2024/02/14 00:00:14;;;;;;;6.97;3.17;;;9.20;84.30;;;;;;9176213;19;20484;-69
2024/02/14 00:03:25;;;;;;;7.40;2.95;;;9.20;83.90;;;;;;9175656;19;20043;-68
2024/02/14 00:06:31;;;;;;;8.02;3.40;;;9.10;83.80;;;;;;9176438;19;20010;-68
2024/02/14 00:09:39;;;;;;;6.45;3.58;;;9.20;83.80;;;;;;9175196;19;20033;-68
2024/02/14 00:12:46;;;;;;;6.57;2.88;;;9.10;83.90;;;;;;9176800;19;20482;-68
2024/02/14 00:15:57;;;;;;;8.82;3.63;;;9.10;83.90;;;;;;9176864;19;20357;-68
2024/02/14 00:19:02;;;;;;;4.78;2.88;;;9.10;84.00;;;;;;9176128;19;20407;-68
2024/02/14 00:22:10;;;;;;;5.25;2.92;;;9.10;84.00;;;;;;9176536;19;20014;-68
2024/02/14 00:25:16;;;;;;;5.95;3.40;;;9.10;84.10;;;;;;9169752;19;20018;-68
2024/02/14 00:28:29;;;;;;;6.45;3.05;;;9.10;84.20;;;;;;9175241;19;20025;-68
2024/02/14 00:31:37;;;;;;;9.93;3.03;;;9.10;84.20;;;;;;9174008;19;20018;-69
2024/02/14 00:34:53;;;;;;;7.68;2.80;;;9.10;84.20;;;;;;9175133;19;20484;-68
2024/02/14 00:37:59;;;;;;;6.03;2.80;;;9.10;84.30;;;;;;9175598;19;20022;-67
2024/02/14 00:41:07;;;;;;;8.13;3.10;;;9.00;84.40;;;;;;9175001;19;20800;-69
2024/02/14 00:44:13;;;;;;;7.88;2.40;;;9.00;84.40;;;;;;9175463;19;20007;-69
2024/02/14 00:47:23;;;;;;;4.18;2.60;;;9.10;84.50;;;;;;9175773;19;20015;-68
2024/02/14 00:50:29;;;;;;;8.75;3.10;;;9.10;84.60;;;;;;9174110;19;20014;-68
2024/02/14 00:53:36;;;;;;;3.95;2.90;;;9.00;85.20;;;;;;9173639;19;20022;-68
2024/02/14 00:56:42;;;;;;;5.75;2.60;;;9.00;84.70;;;;;;9175346;19;20021;-68
2024/02/14 00:59:49;;;;;;;5.18;2.65;;;9.10;84.80;;;;;;9174924;19;20011;-68
2024/02/14 01:02:58;;;;;;;6.28;3.53;;;9.00;84.80;;;;;;9173889;19;20056;-67
2024/02/14 01:06:06;;;;;;;4.10;2.92;;;9.00;84.90;;;;;;9174327;19;20025;-67
2024/02/14 01:09:11;;;;;;;4.10;2.45;;;9.00;84.90;;;;;;9172175;19;20014;-68
2024/02/14 01:12:19;;;;;;;8.25;3.22;;;9.00;84.90;;;;;;9171885;19;20059;-68
2024/02/14 01:15:25;;;;;;;8.57;2.90;;;9.10;85.10;;;;;;9172477;19;20029;-68
2024/02/14 01:18:35;;;;;;;7.38;2.50;;;9.00;85.10;;;;;;9174571;19;20015;-68
2024/02/14 01:21:41;;;;;;;3.55;2.55;;;9.10;85.90;;;;;;9173795;19;20103;-67
2024/02/14 01:24:49;;;;;;;8.82;2.85;;;9.10;85.20;;;;;;9172420;19;20018;-68
2024/02/14 01:27:55;;;;;;;6.47;2.85;;;9.10;85.30;;;;;;9169411;19;20022;-68
2024/02/14 01:31:02;;;;;;;4.50;2.65;;;9.10;85.40;;;;;;9172784;19;20014;-69
2024/02/14 01:34:10;;;;;;;9.55;2.70;;;9.10;85.40;;;;;;9173503;19;20035;-68
2024/02/14 01:37:20;;;;;;;6.30;2.35;;;9.10;85.50;;;;;;9178072;19;20408;-70
2024/02/14 01:40:26;;;;;;;4.25;2.70;;;9.10;85.50;;;;;;9182544;19;20017;-68
2024/02/14 01:43:42;;;;;;;3.78;2.50;;;9.10;85.60;;;;;;9182118;19;20089;-69
2024/02/14 01:46:47;;;;;;;4.03;2.50;;;9.10;85.60;;;;;;9181761;19;20017;-68
2024/02/14 01:49:58;;;;;;;7.57;2.45;;;9.10;85.80;;;;;;9182281;19;20034;-69
2024/02/14 01:53:05;;;;;;;3.10;2.20;;;9.10;85.80;;;;;;9177842;19;20018;-67
2024/02/14 01:56:12;;;;;;;2.90;1.88;;;9.10;85.80;;;;;;9183253;19;20034;-70
2024/02/14 01:59:18;;;;;;;2.78;2.33;;;9.20;85.90;;;;;;9182366;19;20027;-70
2024/02/14 02:02:27;;;;;;;3.80;2.30;;;9.20;85.80;;;;;;9181701;19;20026;-69
2024/02/14 02:05:36;;;;;;;4.50;2.40;;;9.20;86.00;;;;;;9181538;19;20014;-69
2024/02/14 02:08:45;;;;;;;3.25;2.28;;;9.20;86.00;;;;;;9179370;19;20022;-69
2024/02/14 02:11:53;;;;;;;3.17;2.22;;;9.20;86.10;;;;;;9179504;19;20015;-69
2024/02/14 02:15:21;;;;;;;5.78;2.42;;;9.30;86.20;;;;;;9180551;19;20089;-69
2024/02/14 02:18:48;;;;;;;3.92;2.70;;;9.20;86.10;;;;;;9180231;19;20015;-68
2024/02/14 02:22:18;;;;;;;4.75;2.35;;;9.30;86.20;;;;;;9177033;19;20070;-68
2024/02/14 02:25:47;;;;;;;6.68;2.90;;;9.30;86.30;;;;;;9172798;19;20017;-68
2024/02/14 02:29:16;;;;;;;3.83;2.65;;;9.30;86.30;;;;;;9179387;19;20021;-70
2024/02/14 02:32:22;;;;;;;4.70;2.88;;;9.30;86.30;;;;;;9178837;19;20093;-68
2024/02/14 02:35:29;;;;;;;4.00;2.92;;;9.50;86.50;;;;;;9180885;19;20014;-68
2024/02/14 02:38:55;;;;;;;5.40;2.95;;;9.30;86.30;;;;;;9179795;19;20027;-69
2024/02/14 02:42:25;;;;;;;4.25;2.90;;;9.30;86.40;;;;;;9179836;19;20026;-68
2024/02/14 02:45:51;;;;;;;3.17;2.20;;;9.30;86.60;;;;;;9177308;19;20540;-68
2024/02/14 02:49:18;;;;;;;4.43;2.95;;;9.40;86.60;;;;;;9177080;19;20015;-68
2024/02/14 02:52:27;;;;;;;4.15;2.85;;;9.40;86.70;;;;;;9178560;19;20439;-68
2024/02/14 02:55:57;;;;;;;2.78;2.28;;;9.40;86.70;;;;;;9178173;19;20011;-68
2024/02/14 02:59:05;;;;;;;6.72;2.63;;;9.40;86.70;;;;;;9179680;19;20021;-68
2024/02/14 03:02:14;;;;;;;8.48;3.08;;;9.40;86.80;;;;;;9179980;19;20007;-68
2024/02/14 03:05:39;;;;;;;4.32;2.60;;;9.50;86.90;;;;;;9177126;19;20442;-68
2024/02/14 03:09:02;;;;;;;3.63;2.65;;;9.60;86.90;;;;;;9175963;19;20017;-68
2024/02/14 03:12:30;;;;;;;5.13;3.15;;;9.50;87.30;;;;;;9176704;19;20436;-68
2024/02/14 03:16:00;;;;;;;5.00;3.10;;;9.60;87.00;;;;;;9177681;19;20496;-68
2024/02/14 03:19:06;;;;;;;4.10;2.90;;;9.60;87.10;;;;;;9175581;19;20115;-68
2024/02/14 03:22:13;;;;;;;6.30;3.53;;;9.50;87.70;;;;;;9179319;19;20025;-69
2024/02/14 03:25:20;;;;;;;4.80;3.72;;;9.50;87.10;;;;;;9173184;19;20022;-68
2024/02/14 03:28:38;;;;;;;7.25;3.20;;;9.60;87.30;;;;;;9177131;19;21390;-68
2024/02/14 03:31:47;;;;;;;6.75;3.58;;;9.60;87.50;;;;;;9177630;19;20014;-69
2024/02/14 03:34:54;;;;;;;6.72;3.67;;;9.60;87.40;;;;;;9178509;19;20019;-70
2024/02/14 03:38:00;;;;;;;6.32;3.53;;;9.70;87.50;;;;;;9177912;19;20476;-68
2024/02/14 03:41:07;;;;;;;5.70;3.35;;;9.70;87.50;;;;;;9177693;19;20022;-68
2024/02/14 03:44:13;;;;;;;3.80;3.20;;;9.70;87.50;;;;;;9175562;19;20582;-69
2024/02/14 03:47:23;;;;;;;7.60;3.53;;;9.70;87.60;;;;;;9176771;19;20023;-70
2024/02/14 03:50:29;;;;;;;8.18;3.80;;;9.70;87.60;;;;;;9177179;19;20081;-69
2024/02/14 03:53:37;;;;;;;5.45;3.50;;;9.70;87.60;;;;;;9175458;19;20022;-68
2024/02/14 03:56:43;;;;;;;3.78;3.03;;;9.80;87.80;;;;;;9177577;19;20011;-69
2024/02/14 03:59:50;;;;;;;4.80;3.80;;;9.90;87.90;;;;;;9174647;19;20031;-68
2024/02/14 04:02:59;;;;;;;4.85;3.60;;;9.80;87.70;;;;;;9177010;19;20025;-68
2024/02/14 04:06:07;;;;;;;6.97;3.88;;;9.90;88.50;;;;;;9177270;19;20096;-68
2024/02/14 04:09:12;;;;;;;6.97;4.13;;;9.80;87.90;;;;;;9173876;19;20011;-68
2024/02/14 04:12:20;;;;;;;9.20;3.75;;;9.90;88.20;;;;;;9175177;19;20503;-68
2024/02/14 04:15:26;;;;;;;5.13;3.25;;;9.90;88.10;;;;;;9176589;19;20464;-68
2024/02/14 04:18:40;;;;;;;9.32;3.53;;;9.90;88.20;;;;;;9176558;19;20026;-68
2024/02/14 04:21:46;;;;;;;6.07;3.67;;;10.00;88.30;;;;;;9175461;19;20029;-68
2024/02/14 04:24:54;;;;;;;5.85;3.45;;;10.00;88.30;;;;;;9173865;19;20025;-69
2024/02/14 04:27:59;;;;;;;5.97;3.45;;;10.00;88.40;;;;;;9171671;19;20018;-69
2024/02/14 04:31:07;;;;;;;5.22;3.10;;;10.00;88.30;;;;;;9174979;19;20025;-68
2024/02/14 04:34:26;;;;;;;5.32;3.50;;;10.10;88.50;;;;;;9172878;19;20025;-70
2024/02/14 04:37:33;;;;;;;4.80;3.08;;;10.00;88.40;;;;;;9174602;19;20018;-70
2024/02/14 04:40:39;;;;;;;6.40;3.58;;;10.10;88.50;;;;;;9174004;19;20010;-68
2024/02/14 04:43:47;;;;;;;7.35;3.38;;;10.00;88.30;;;;;;9174449;19;20025;-68
2024/02/14 04:46:52;;;;;;;6.30;3.22;;;10.10;88.40;;;;;;9174726;19;20010;-68
2024/02/14 04:50:04;;;;;;;4.53;3.10;;;10.10;88.40;;;;;;9175263;19;20112;-68
2024/02/14 04:53:09;;;;;;;3.53;2.70;;;10.10;88.50;;;;;;9174229;19;20021;-68
2024/02/14 04:56:17;;;;;;;5.85;3.53;;;10.10;88.50;;;;;;9174994;19;20029;-68
2024/02/14 04:59:22;;;;;;;4.63;3.22;;;10.20;88.60;;;;;;9174737;19;20014;-70
2024/02/14 05:02:30;;;;;;;6.78;3.38;;;10.20;88.60;;;;;;9174735;19;20019;-68
2024/02/14 05:05:38;;;;;;;4.55;3.15;;;10.20;88.60;;;;;;9175351;19;20472;-69
2024/02/14 05:08:46;;;;;;;4.57;3.40;;;10.20;88.60;;;;;;9171810;19;20015;-68
2024/02/14 05:11:52;;;;;;;5.30;3.72;;;10.30;88.80;;;;;;9176717;19;20026;-68
2024/02/14 05:14:59;;;;;;;8.15;4.40;;;10.30;88.60;;;;;;9184710;19;20041;-70
2024/02/14 05:18:06;;;;;;;11.50;4.30;;;10.30;88.60;;;;;;9184024;19;20097;-68
2024/02/14 05:21:17;;;;;;;5.47;3.85;;;10.30;88.70;;;;;;9183427;19;20874;-68
2024/02/14 05:24:22;;;;;;;6.05;3.90;;;10.30;88.80;;;;;;9183901;19;20023;-69
2024/02/14 05:27:30;;;;;;;8.35;4.65;;;10.30;88.70;;;;;;9179094;19;20756;-68
2024/02/14 05:30:36;;;;;;;7.00;4.80;;;10.30;88.80;;;;;;9183063;19;20019;-68
2024/02/14 05:33:55;;;;;;;6.25;4.43;;;10.40;89.00;;;;;;9181537;19;20021;-69
2024/02/14 05:37:05;;;;;;;9.35;4.88;;;10.40;89.00;;;;;;9183778;19;20029;-68
2024/02/14 05:40:14;;;;;;;8.35;5.22;;;10.40;89.00;;;;;;9182496;19;20021;-68
2024/02/14 05:43:20;;;;;;;8.30;5.50;;;10.40;88.90;;;;;;9181828;19;20019;-68
2024/02/14 05:46:27;;;;;;;10.32;5.70;;;10.40;89.00;;;;;;9183092;19;20019;-68
2024/02/14 05:49:33;;;;;;;9.65;5.88;;;10.50;89.10;;;;;;9183047;19;20045;-70
2024/02/14 05:52:43;;;;;;;10.55;6.53;;;10.50;89.20;;;;;;9181776;19;20019;-70
2024/02/14 05:55:49;;;;;;;11.98;6.47;;;10.60;89.30;;;;;;9181347;19;20489;-70
2024/02/14 05:58:56;;;;;;;9.68;6.00;;;10.50;89.30;;;;;;9182968;19;20011;-70
2024/02/14 06:02:02;;;;;;;9.10;6.95;;;10.50;89.20;;;;;;9180529;19;20523;-70
2024/02/14 06:05:12;;;;;;;11.93;6.80;;;10.50;89.20;;;;;;9180307;19;20018;-70
2024/02/14 06:08:20;;;;;;;12.52;7.78;;;10.50;89.20;;;;;;9179304;19;20014;-70
2024/02/14 06:11:27;;;;;;;16.48;7.63;;;10.60;89.30;;;;;;9181630;19;20014;-70
2024/02/14 06:14:35;;;;;;;16.88;7.88;;;10.60;89.30;;;;;;9179186;19;20014;-70
2024/02/14 06:17:42;;;;;;;16.75;8.52;;;10.60;89.50;;;;;;9181682;19;20491;-70
2024/02/14 06:20:48;;;;;;;14.82;8.15;;;10.60;89.90;;;;;;9181826;19;20018;-70
2024/02/14 06:23:58;;;;;;;15.27;9.10;;;10.70;89.40;;;;;;9178221;19;20019;-70
2024/02/14 06:27:04;;;;;;;17.48;8.90;;;10.60;89.50;;;;;;9175515;19;20022;-70
2024/02/14 06:30:13;;;;;;;14.35;8.88;;;10.70;89.50;;;;;;9181121;19;20480;-70
2024/02/14 06:33:19;;;;;;;18.27;9.55;;;10.70;89.40;;;;;;9180671;19;20018;-70
2024/02/14 06:36:26;;;;;;;14.98;9.07;;;10.70;89.50;;;;;;9179694;19;20023;-70
2024/02/14 06:39:35;;;;;;;15.18;9.10;;;10.70;89.60;;;;;;9180318;19;20345;-70
2024/02/14 06:42:42;;;;;;;16.77;9.02;;;10.70;89.50;;;;;;9179994;19;20015;-70
2024/02/14 06:45:47;;;;;;;17.63;9.48;;;10.70;90.10;;;;;;9179935;19;20048;-69
2024/02/14 06:49:02;;;;;;;18.40;9.88;;;10.70;89.60;;;;;;9178246;19;20365;-69
2024/02/14 06:52:09;;;;;;;16.55;8.90;;;10.80;89.80;;;;;;9178358;19;20044;-70
2024/02/14 06:55:19;;;;;;;14.35;8.98;;;10.80;90.20;;;;;;9176510;19;20060;-70
2024/02/14 06:58:24;;;;;;;18.90;9.00;;;10.90;89.90;;;;;;9176674;19;20006;-70
2024/02/14 07:01:32;;;;;;;15.18;8.68;;;10.90;89.90;;;;;;9177465;19;20022;-70
2024/02/14 07:04:37;;;;;;;19.08;9.50;;;10.90;89.80;;;;;;9176588;19;20034;-70
2024/02/14 07:07:45;;;;;;;18.48;9.43;;;10.80;89.80;;;;;;9176411;19;20511;-69
2024/02/14 07:10:53;;;;;;;18.23;9.80;;;10.90;89.90;;;;;;9176544;19;20094;-69
2024/02/14 07:14:01;;;;;;;12.30;9.05;;;10.80;89.80;;;;;;9174177;19;20021;-69
2024/02/14 07:17:07;;;;;;;18.58;9.07;;;10.90;89.90;;;;;;9175049;19;20038;-69
2024/02/14 07:20:17;;;;;;;18.10;9.68;;;10.90;90.00;;;;;;9172254;19;20318;-70
2024/02/14 07:23:23;;;;;;;21.05;10.70;;;10.90;90.00;;;;;;9172039;19;20503;-69
2024/02/14 07:26:33;;;;;;;16.88;9.63;;;10.90;90.00;;;;;;9168115;19;20476;-69
2024/02/14 07:29:39;;;;;;;14.50;9.88;;;10.90;90.00;;;;;;9173786;19;20049;-69
2024/02/14 07:32:47;;;;;;;19.38;9.82;;;11.00;90.00;;;;;;9175109;19;20019;-69
2024/02/14 07:35:53;;;;;;;13.50;9.18;;;11.00;90.00;;;;;;9172559;19;20090;-69
2024/02/14 07:39:00;;;;;;;13.95;8.63;;;10.90;90.00;;;;;;9177898;19;20400;-69
2024/02/14 07:42:08;;;;;;;11.80;8.32;;;11.00;90.00;;;;;;9177465;19;20356;-69
2024/02/14 07:45:17;;;;;;;13.10;8.38;;;11.00;90.10;;;;;;9173099;19;20018;-69
2024/02/14 07:48:22;;;;;;;13.55;8.20;;;11.00;90.00;;;;;;9175293;19;20018;-69
2024/02/14 07:51:36;;;;;;;10.70;7.15;;;11.00;90.00;;;;;;9174940;19;20014;-69
2024/02/14 07:54:42;;;;;;;11.25;7.40;;;11.00;90.00;;;;;;9173918;19;20106;-69
2024/02/14 07:57:52;;;;;;;9.68;7.13;;;11.10;90.10;;;;;;9175432;19;20818;-69
2024/02/14 08:00:58;;;;;;;12.82;7.10;;;11.00;90.10;;;;;;9175309;19;20018;-69
2024/02/14 08:04:07;;;;;;;10.88;6.55;;;11.10;90.00;;;;;;9174975;19;20018;-69
2024/02/14 08:07:13;;;;;;;10.40;6.95;;;11.00;90.30;;;;;;9176237;19;20018;-69
2024/02/14 08:10:20;;;;;;;10.60;6.75;;;11.10;90.10;;;;;;9175353;19;20029;-69
2024/02/14 08:13:29;;;;;;;8.25;6.45;;;11.10;90.10;;;;;;9174253;19;20007;-69
2024/02/14 08:16:36;;;;;;;7.95;5.70;;;11.10;90.10;;;;;;9172606;19;20522;-69
2024/02/14 08:19:43;;;;;;;8.23;5.95;;;11.20;90.10;;;;;;9175568;19;20014;-69
2024/02/14 08:22:51;;;;;;;9.85;6.30;;;11.20;90.10;;;;;;9175433;19;20361;-69
2024/02/14 08:25:57;;;;;;;9.02;5.85;;;11.20;90.10;;;;;;9170079;19;20026;-69
2024/02/14 08:29:09;;;;;;;9.63;5.75;;;11.20;90.10;;;;;;9174559;19;20041;-70
2024/02/14 08:32:15;;;;;;;7.65;5.88;;;11.20;90.10;;;;;;9174968;19;20099;-70
2024/02/14 08:35:23;;;;;;;10.52;5.68;;;11.30;90.20;;;;;;9173544;19;20023;-69
2024/02/14 08:38:28;;;;;;;11.75;6.32;;;11.30;90.20;;;;;;9172401;19;20401;-69
2024/02/14 08:41:36;;;;;;;12.57;6.68;;;11.30;90.10;;;;;;9174216;19;20025;-69
2024/02/14 08:44:44;;;;;;;8.23;5.85;;;11.30;90.10;;;;;;9173019;19;20536;-69
2024/02/14 08:47:52;;;;;;;9.45;6.30;;;11.40;90.50;;;;;;9172322;19;20019;-69
2024/02/14 08:50:58;;;;;;;8.25;5.65;;;11.40;90.20;;;;;;9173958;19;20557;-69
2024/02/14 08:54:07;;;;;;;10.75;6.50;;;11.30;90.10;;;;;;9172446;19;20007;-69
2024/02/14 08:57:13;;;;;;;7.15;5.30;;;11.30;90.10;;;;;;9172514;19;20014;-70
2024/02/14 09:00:24;;;;;;;11.18;6.18;;;11.30;90.40;;;;;;9173838;19;20015;-69
2024/02/14 09:03:31;;;;;;;9.25;6.80;;;11.40;90.20;;;;;;9174992;19;20040;-69
2024/02/14 09:06:39;;;;;;;10.43;6.22;;;11.40;90.10;;;;;;9168936;19;20015;-68
2024/02/14 09:09:46;;;;;;;11.98;6.30;;;11.40;90.20;;;;;;9171066;19;20023;-69
2024/02/14 09:12:53;;;;;;;9.45;6.43;;;11.40;90.20;;;;;;9173900;19;20041;-69
2024/02/14 09:16:02;;;;;;;10.93;6.80;;;11.40;90.20;;;;;;9169456;19;20038;-69
2024/02/14 09:19:10;;;;;;;14.55;7.13;;;11.40;90.20;;;;;;9167951;19;20018;-69
2024/02/14 09:22:21;;;;;;;9.98;6.85;;;11.70;90.30;;;;;;9171533;19;20399;-69
2024/02/14 09:25:28;;;;;;;10.25;7.10;;;11.50;90.30;;;;;;9169263;19;20014;-69
2024/02/14 09:28:34;;;;;;;11.57;7.85;;;11.50;90.30;;;;;;9172258;19;20379;-68
2024/02/14 09:31:47;;;;;;;11.52;7.32;;;11.50;90.30;;;;;;9174114;19;20021;-68
2024/02/14 09:34:53;;;;;;;9.90;7.80;;;11.50;90.60;;;;;;9172750;19;20467;-68
2024/02/14 09:38:00;;;;;;;12.63;8.55;;;11.50;90.30;;;;;;9171676;19;20091;-68
2024/02/14 09:41:13;;;;;;;16.58;8.18;;;11.50;90.20;;;;;;9172114;19;20014;-68
2024/02/14 09:44:22;;;;;;;16.35;8.15;;;11.50;90.30;;;;;;9169770;19;20018;-68
2024/02/14 09:47:33;;;;;;;11.52;7.90;;;11.60;90.30;;;;;;9170257;19;20018;-68
2024/02/14 09:50:41;;;;;;;;;;;11.60;90.30;;;;;;9172996;19;20015;-68
2024/02/14 09:53:47;;;;;;;12.95;8.02;;;11.60;90.30;;;;;;9170579;19;19950;-68
2024/02/14 09:56:57;;;;;;;14.70;8.20;;;11.70;90.30;;;;;;9169289;19;20022;-68
2024/02/14 10:00:03;;;;;;;17.70;7.57;;;11.60;90.30;;;;;;9177936;19;20033;-68
2024/02/14 10:03:15;;;;;;;18.35;7.82;;;11.70;90.40;;;;;;9180936;19;20017;-68
2024/02/14 10:06:22;;;;;;;14.20;7.18;;;11.70;90.30;;;;;;9180235;19;20011;-68
2024/02/14 10:09:30;;;;;;;13.13;7.20;;;11.70;90.30;;;;;;9181775;19;20508;-68
2024/02/14 10:12:35;;;;;;;13.68;7.72;;;11.70;90.30;;;;;;9177926;19;20019;-68
2024/02/14 10:15:43;;;;;;;10.48;6.72;;;11.80;90.40;;;;;;9179647;19;20024;-68
2024/02/14 10:18:52;;;;;;;10.43;6.57;;;11.80;90.40;;;;;;9179290;19;20022;-68
2024/02/14 10:22:01;;;;;;;8.40;6.03;;;11.80;90.40;;;;;;9180949;19;20010;-68
2024/02/14 10:25:10;;;;;;;11.77;7.50;;;11.70;90.30;;;;;;9173747;19;20377;-68
2024/02/14 10:28:18;;;;;;;10.65;6.57;;;11.80;90.30;;;;;;9176914;19;20330;-68
2024/02/14 10:31:27;;;;;;;8.35;6.15;;;11.80;90.40;;;;;;9179659;19;20813;-68
2024/02/14 10:34:40;;;;;;;8.07;5.78;;;11.80;90.40;;;;;;9178758;19;20018;-68
2024/02/14 10:37:48;;;;;;;9.23;5.93;;;11.80;90.40;;;;;;9174823;19;20044;-68
2024/02/14 10:40:57;;;;;;;12.00;6.07;;;11.80;90.40;;;;;;9178348;19;20022;-68
2024/02/14 10:44:03;;;;;;;9.13;5.93;;;11.90;90.50;;;;;;9177410;19;20014;-68
2024/02/14 10:47:15;;;;;;;12.30;5.85;;;11.90;90.40;;;;;;9173408;19;20014;-68
2024/02/14 10:50:25;;;;;;;8.27;5.90;;;11.90;90.50;;;;;;9177712;19;20025;-68
2024/02/14 10:53:36;;;;;;;6.82;5.03;;;12.00;90.50;;;;;;9177352;19;20022;-69
2024/02/14 10:56:45;;;;;;;9.23;5.10;;;12.00;90.50;;;;;;9176015;19;20491;-68
2024/02/14 10:59:53;;;;;;;5.90;4.43;;;12.10;90.50;;;;;;9178189;19;20037;-68
2024/02/14 11:03:00;;;;;;;6.38;4.80;;;12.00;90.50;;;;;;9177254;19;20019;-68
2024/02/14 11:06:12;;;;;;;7.95;4.53;;;12.00;90.50;;;;;;9178262;19;20022;-73
2024/02/14 11:09:18;;;;;;;8.13;4.90;;;12.10;90.50;;;;;;9172953;19;20487;-68
2024/02/14 11:12:26;;;;;;;6.78;4.50;;;12.10;90.50;;;;;;9178204;19;20018;-68
2024/02/14 11:15:32;;;;;;;8.43;4.45;;;12.10;90.50;;;;;;9174757;19;20524;-68
2024/02/14 11:18:40;;;;;;;6.18;4.45;;;12.10;90.50;;;;;;9177480;19;20377;-68
2024/02/14 11:21:51;;;;;;;10.88;5.50;;;12.10;90.50;;;;;;9177453;19;20018;-68
2024/02/14 11:24:59;;;;;;;8.75;5.18;;;12.10;90.50;;;;;;9176776;19;20033;-68
2024/02/14 11:28:16;;;;;;;7.07;4.40;;;12.10;90.50;;;;;;9176848;19;20021;-68
2024/02/14 11:31:26;;;;;;;7.47;5.10;;;12.10;90.50;;;;;;9176666;19;20019;-68
2024/02/14 11:34:33;;;;;;;10.15;5.28;;;12.10;90.50;;;;;;9177702;19;20384;-69
2024/02/14 11:37:54;;;;;;;6.32;4.63;;;12.20;90.60;;;;;;9172447;19;20014;-68
2024/02/14 11:41:00;;;;;;;8.43;5.47;;;12.20;90.60;;;;;;9146068;19;20018;-68
2024/02/14 11:44:08;;;;;;;10.45;5.70;;;12.20;90.60;;;;;;9170530;19;20503;-68
2024/02/14 11:47:13;;;;;;;8.73;6.18;;;12.20;90.70;;;;;;9176839;19;20361;-68
2024/02/14 11:50:21;;;;;;;14.18;5.85;;;12.20;90.50;;;;;;9173421;19;20374;-68
2024/02/14 11:53:29;;;;;;;6.60;5.28;;;12.20;90.60;;;;;;9174089;19;20015;-68
2024/02/14 11:56:39;;;;;;;8.93;6.40;;;12.20;90.60;;;;;;9175333;19;20022;-68
2024/02/14 11:59:46;;;;;;;11.55;6.10;;;12.20;90.60;;;;;;9173859;19;20473;-68
2024/02/14 12:02:54;;;;;;;11.07;6.80;;;12.30;90.60;;;;;;9173015;19;20025;-68
2024/02/14 12:06:00;;;;;;;13.05;6.90;;;12.20;90.60;;;;;;9171845;19;20018;-68
2024/02/14 12:09:12;;;;;;;15.10;7.30;;;12.30;90.60;;;;;;9169354;19;20018;-68
2024/02/14 12:12:23;;;;;;;11.50;7.65;;;12.40;90.70;;;;;;9169973;19;20056;-68
2024/02/14 12:15:31;;;;;;;11.25;7.28;;;12.30;90.60;;;;;;9175162;19;20022;-68
2024/02/14 12:18:37;;;;;;;15.57;8.20;;;12.30;90.70;;;;;;9173069;19;20031;-68
2024/02/14 12:21:48;;;;;;;15.48;8.27;;;12.40;90.70;;;;;;9172226;19;20470;-68
2024/02/14 12:25:00;;;;;;;14.35;7.40;;;12.40;90.60;;;;;;9175025;19;20014;-67
2024/02/14 12:28:08;;;;;;;15.52;8.65;;;12.40;90.60;;;;;;9173769;19;20026;-68
2024/02/14 12:31:14;;;;;;;16.77;8.65;;;12.40;90.60;;;;;;9174580;19;20022;-68
2024/02/14 12:34:24;;;;;;;13.63;7.90;;;12.30;90.60;;;;;;9173233;19;20520;-68
2024/02/14 12:37:30;;;;;;;14.82;8.55;;;12.40;90.60;;;;;;9171992;19;20014;-68
2024/02/14 12:40:41;;;;;;;19.25;7.53;;;12.40;90.60;;;;;;9170983;19;20010;-68
2024/02/14 12:43:48;;;;;;;15.45;7.45;;;12.40;90.70;;;;;;9175088;19;20033;-68
2024/02/14 12:46:55;;;;;;;17.23;8.02;;;12.40;90.60;;;;;;9171976;19;20361;-68
2024/02/14 12:50:01;;;;;;;11.88;7.55;;;12.40;90.60;;;;;;9172886;19;20021;-68
2024/02/14 12:53:10;;;;;;;13.23;7.15;;;12.40;90.60;;;;;;9174898;19;20029;-68
2024/02/14 12:56:18;;;;;;;11.38;6.85;;;12.50;90.70;;;;;;9175419;19;20368;-68
2024/02/14 12:59:26;;;;;;;11.90;6.97;;;12.40;90.70;;;;;;9173535;19;20014;-68
2024/02/14 13:02:32;;;;;;;11.68;6.40;;;12.50;90.90;;;;;;9174854;19;20014;-70
2024/02/14 13:05:40;;;;;;;13.65;6.82;;;12.40;90.70;;;;;;9175108;19;20018;-69
2024/02/14 13:08:45;;;;;;;9.90;6.25;;;12.60;90.70;;;;;;9171871;19;20736;-69
2024/02/14 13:11:56;;;;;;;8.65;6.22;;;12.50;90.70;;;;;;9174550;19;20018;-70
2024/02/14 13:15:02;;;;;;;10.82;5.70;;;12.50;90.70;;;;;;9174479;19;20771;-69
2024/02/14 13:18:10;;;;;;;8.95;5.80;;;12.50;90.70;;;;;;9173442;19;20603;-70
2024/02/14 13:21:17;;;;;;;9.02;5.75;;;12.50;90.70;;;;;;9174213;19;20026;-70
2024/02/14 13:24:24;;;;;;;9.32;5.30;;;12.50;90.70;;;;;;9173916;19;20014;-69
2024/02/14 13:27:33;;;;;;;12.05;5.32;;;12.50;90.70;;;;;;9169415;19;20021;-70
2024/02/14 13:30:41;;;;;;;7.70;5.32;;;12.50;90.80;;;;;;9173790;19;20076;-69
2024/02/14 13:33:46;;;;;;;10.88;5.53;;;12.50;90.70;;;;;;9180957;19;20022;-69
2024/02/14 13:36:56;;;;;;;7.78;4.55;;;12.50;90.80;;;;;;9182656;19;20484;-69
2024/02/14 13:40:04;;;;;;;7.28;5.05;;;12.50;90.80;;;;;;9183685;19;20022;-69
2024/02/14 13:43:16;;;;;;;11.75;4.80;;;12.60;90.80;;;;;;9180233;19;20480;-70
2024/02/14 13:46:26;;;;;;;7.32;4.60;;;12.60;90.80;;;;;;9184163;19;20025;-69
2024/02/14 13:49:33;;;;;;;8.00;5.07;;;12.60;90.90;;;;;;9182925;19;20033;-69
2024/02/14 13:52:39;;;;;;;5.32;4.00;;;12.70;91.00;;;;;;9181010;19;20026;-69
2024/02/14 13:55:47;;;;;;;7.88;4.45;;;12.70;91.00;;;;;;9180868;19;20010;-69
2024/02/14 13:58:55;;;;;;;7.63;4.43;;;12.60;90.80;;;;;;9180792;19;20015;-69
2024/02/14 14:02:02;;;;;;;8.32;3.88;;;12.70;90.90;;;;;;9182404;19;20590;-69
2024/02/14 14:05:08;;;;;;;9.85;4.25;;;12.70;90.90;;;;;;9178417;19;20113;-69
2024/02/14 14:08:16;;;;;;;9.52;4.32;;;12.70;91.00;;;;;;9179437;19;20029;-69
2024/02/14 14:11:22;;;;;;;5.18;3.30;;;12.70;90.90;;;;;;9182730;19;20006;-69
2024/02/14 14:14:33;;;;;;;7.60;3.00;;;12.70;91.20;;;;;;9181327;19;20025;-69
2024/02/14 14:17:38;;;;;;;4.50;2.97;;;12.70;90.90;;;;;;9176521;19;20022;-69
2024/02/14 14:20:46;;;;;;;3.85;3.25;;;12.70;90.90;;;;;;9180027;19;20011;-69
2024/02/14 14:23:52;;;;;;;5.32;2.90;;;12.90;91.00;;;;;;9171276;19;20457;-70
2024/02/14 14:27:00;;;;;;;5.18;2.78;;;12.80;90.90;;;;;;9174734;19;20361;-69
2024/02/14 14:30:09;;;;;;;3.17;2.40;;;12.80;90.90;;;;;;9178776;19;20014;-69
2024/02/14 14:33:17;;;;;;;3.97;2.25;;;12.90;91.30;;;;;;9177549;19;20467;-69
2024/02/14 14:36:24;;;;;;;2.50;2.30;;;12.80;90.90;;;;;;9179622;19;20014;-70
2024/02/14 14:39:32;;;;;;;4.75;1.90;;;12.90;90.90;;;;;;9177455;19;20021;-70
2024/02/14 14:42:38;;;;;;;6.07;1.88;;;12.90;90.90;;;;;;9179069;19;20015;-70
2024/02/14 14:45:49;;;;;;;1.95;1.75;;;12.90;90.90;;;;;;9178634;19;20038;-69
2024/02/14 14:48:55;;;;;;;2.05;1.80;;;12.90;90.90;;;;;;9180485;19;20018;-69
2024/02/14 14:52:04;;;;;;;2.85;2.05;;;12.90;90.90;;;;;;9174725;19;20018;-69
2024/02/14 14:55:10;;;;;;;5.18;2.08;;;12.90;90.90;;;;;;9179354;19;20074;-69
2024/02/14 14:58:18;;;;;;;5.28;2.22;;;12.90;90.90;;;;;;9179377;19;20022;-70
2024/02/14 15:01:27;;;;;;;6.30;2.58;;;12.90;90.90;;;;;;9179828;19;20014;-69
2024/02/14 15:04:36;;;;;;;5.53;1.83;;;13.00;90.90;;;;;;9178503;19;20022;-69
2024/02/14 15:07:42;;;;;;;2.78;2.00;;;13.00;90.90;;;;;;9176259;19;20026;-70
2024/02/14 15:10:50;;;;;;;2.13;1.92;;;13.00;90.90;;;;;;9178841;19;20014;-70
2024/02/14 15:13:56;;;;;;;3.65;2.70;;;13.00;90.90;;;;;;9179115;19;20022;-70
2024/02/14 15:17:06;;;;;;;4.63;2.20;;;13.10;90.90;;;;;;9179011;19;20015;-70
2024/02/14 15:20:12;;;;;;;3.80;1.98;;;13.00;90.90;;;;;;9176156;19;20111;-70
2024/02/14 15:23:20;;;;;;;2.88;1.80;;;12.90;90.90;;;;;;9177550;19;20579;-70
2024/02/14 15:26:26;;;;;;;2.80;2.00;;;13.10;90.90;;;;;;9174479;19;20015;-70
2024/02/14 15:36:15;;;;;;;2.80;2.10;;;13.00;90.80;;;;;;9178191;19;20018;-70
2024/02/14 15:39:21;;;;;;;3.17;2.05;;;13.00;90.90;;;;;;9177946;19;20010;-70
2024/02/14 15:42:29;;;;;;;2.08;1.88;;;13.00;90.80;;;;;;9173680;19;20029;-70
2024/02/14 15:45:34;;;;;;;2.15;1.95;;;13.00;90.80;;;;;;9178367;19;20521;-70
2024/02/14 15:48:45;;;;;;;2.30;1.70;;;13.00;90.80;;;;;;9176928;19;20014;-70
2024/02/14 15:51:51;;;;;;;2.67;1.85;;;13.00;90.90;;;;;;9177320;19;20018;-70
2024/02/14 15:54:58;;;;;;;2.78;2.25;;;13.00;90.90;;;;;;9175724;19;20019;-70
2024/02/14 15:58:04;;;;;;;1.92;1.65;;;13.00;90.90;;;;;;9177549;19;20007;-70
2024/02/14 16:01:12;;;;;;;2.88;2.03;;;13.00;91.00;;;;;;9174649;19;20491;-70
2024/02/14 16:04:20;;;;;;;3.53;2.20;;;13.10;90.90;;;;;;9177045;19;20077;-70
2024/02/14 16:07:27;;;;;;;2.63;2.17;;;13.00;90.90;;;;;;9175971;19;20365;-70
2024/02/14 16:10:34;;;;;;;6.10;3.67;;;13.00;90.90;;;;;;9176853;19;20018;-70
2024/02/14 16:13:41;;;;;;;19.80;7.45;;;13.00;91.00;;;;;;9174255;19;20011;-70
2024/02/14 16:16:47;;;;;;;8.70;4.72;;;13.10;91.00;;;;;;9176427;19;20040;-70
2024/02/14 16:19:57;;;;;;;3.55;2.33;;;13.00;90.90;;;;;;9174447;19;20017;-70
2024/02/14 16:23:05;;;;;;;4.57;2.80;;;13.00;90.90;;;;;;9174419;19;20014;-69
2024/02/14 16:26:15;;;;;;;3.83;2.70;;;12.90;90.80;;;;;;9168361;19;20007;-70